sensor_id;sensor_type;location;lat;lon;timestamp;pressure;altitude;pressure_sealevel;temperature;humidity
50057;BME280;36875;49.468;11.200;2023-08-01T00:00:26;96969.44;;;20.84;57.68
50057;BME280;36875;49.468;11.200;2023-08-01T00:02:52;96981.53;;;20.83;57.70
50057;BME280;36875;49.468;11.200;2023-08-01T00:05:17;96965.47;;;20.81;57.78
50057;BME280;36875;49.468;11.200;2023-08-01T00:07:43;96963.19;;;20.83;57.82
50057;BME280;36875;49.468;11.200;2023-08-01T00:10:10;96947.91;;;20.82;57.64
50057;BME280;36875;49.468;11.200;2023-08-01T00:12:35;96944.38;;;20.82;57.70
50057;BME280;36875;49.468;11.200;2023-08-01T00:15:01;96945.19;;;20.82;57.84
50057;BME280;36875;49.468;11.200;2023-08-01T00:17:27;96947.91;;;20.82;57.77
50057;BME280;36875;49.468;11.200;2023-08-01T00:19:52;96938.13;;;20.81;57.72
50057;BME280;36875;49.468;11.200;2023-08-01T00:22:18;96933.44;;;20.82;57.68
50057;BME280;36875;49.468;11.200;2023-08-01T00:24:43;96930.72;;;20.82;57.96
50057;BME280;36875;49.468;11.200;2023-08-01T00:27:10;96936.53;;;20.80;57.67
50057;BME280;36875;49.468;11.200;2023-08-01T00:29:36;96940.03;;;20.80;57.97
50057;BME280;36875;49.468;11.200;2023-08-01T00:32:01;96942.78;;;20.80;57.72
50057;BME280;36875;49.468;11.200;2023-08-01T00:34:27;96938.47;;;20.79;57.78
50057;BME280;36875;49.468;11.200;2023-08-01T00:36:52;96947.47;;;20.80;58.02
50057;BME280;36875;49.468;11.200;2023-08-01T00:39:18;96943.59;;;20.81;57.99
50057;BME280;36875;49.468;11.200;2023-08-01T00:41:43;96934.56;;;20.80;57.72
50057;BME280;36875;49.468;11.200;2023-08-01T00:44:10;96933.78;;;20.80;57.84
50057;BME280;36875;49.468;11.200;2023-08-01T00:46:36;96933.78;;;20.80;58.06
50057;BME280;36875;49.468;11.200;2023-08-01T00:49:02;96922.06;;;20.79;58.02
50057;BME280;36875;49.468;11.200;2023-08-01T00:51:29;96927.53;;;20.79;58.25
50057;BME280;36875;49.468;11.200;2023-08-01T00:53:56;96919.66;;;20.78;58.22
50057;BME280;36875;49.468;11.200;2023-08-01T00:56:22;96920.44;;;20.78;58.05
50057;BME280;36875;49.468;11.200;2023-08-01T00:58:48;96911.00;;;20.76;57.87
50057;BME280;36875;49.468;11.200;2023-08-01T01:01:15;96907.59;;;20.79;58.25
50057;BME280;36875;49.468;11.200;2023-08-01T01:03:40;96908.72;;;20.78;58.10
50057;BME280;36875;49.468;11.200;2023-08-01T01:06:09;96913.06;;;20.79;57.91
50057;BME280;36875;49.468;11.200;2023-08-01T01:08:37;96897.44;;;20.79;57.96
50057;BME280;36875;49.468;11.200;2023-08-01T01:11:02;96899.41;;;20.79;57.98
50057;BME280;36875;49.468;11.200;2023-08-01T01:13:29;96886.41;;;20.76;58.17
50057;BME280;36875;49.468;11.200;2023-08-01T01:15:55;96889.59;;;20.78;58.10
50057;BME280;36875;49.468;11.200;2023-08-01T01:18:22;96887.63;;;20.78;58.30
50057;BME280;36875;49.468;11.200;2023-08-01T01:20:48;96886.84;;;20.78;58.27
50057;BME280;36875;49.468;11.200;2023-08-01T01:23:14;96880.59;;;20.77;58.23
50057;BME280;36875;49.468;11.200;2023-08-01T01:25:41;96879.44;;;20.78;58.11
50057;BME280;36875;49.468;11.200;2023-08-01T01:28:07;96878.66;;;20.78;58.23
50057;BME280;36875;49.468;11.200;2023-08-01T01:30:33;96875.91;;;20.78;58.24
50057;BME280;36875;49.468;11.200;2023-08-01T01:33:00;96861.00;;;20.75;58.42
50057;BME280;36875;49.468;11.200;2023-08-01T01:35:25;96866.13;;;20.77;58.00
50057;BME280;36875;49.468;11.200;2023-08-01T01:37:52;96855.97;;;20.77;58.18
50057;BME280;36875;49.468;11.200;2023-08-01T01:40:18;96851.63;;;20.76;58.43
50057;BME280;36875;49.468;11.200;2023-08-01T01:42:44;96845.38;;;20.76;58.22
50057;BME280;36875;49.468;11.200;2023-08-01T01:45:10;96839.91;;;20.76;58.27
50057;BME280;36875;49.468;11.200;2023-08-01T01:47:35;96839.13;;;20.75;58.40
50057;BME280;36875;49.468;11.200;2023-08-01T01:50:01;96839.91;;;20.76;58.30
50057;BME280;36875;49.468;11.200;2023-08-01T01:52:26;96833.66;;;20.75;58.21
50057;BME280;36875;49.468;11.200;2023-08-01T01:54:53;96829.31;;;20.74;58.49
50057;BME280;36875;49.468;11.200;2023-08-01T01:57:19;96821.13;;;20.74;58.72
50057;BME280;36875;49.468;11.200;2023-08-01T01:59:44;96827.38;;;20.75;58.34
50057;BME280;36875;49.468;11.200;2023-08-01T02:02:09;96821.13;;;20.74;58.32
50057;BME280;36875;49.468;11.200;2023-08-01T02:04:35;96824.63;;;20.75;58.18
50057;BME280;36875;49.468;11.200;2023-08-01T02:07:00;96821.91;;;20.75;58.26
50057;BME280;36875;49.468;11.200;2023-08-01T02:09:26;96818.38;;;20.74;58.47
50057;BME280;36875;49.468;11.200;2023-08-01T02:11:53;96809.38;;;20.74;58.33
50057;BME280;36875;49.468;11.200;2023-08-01T02:14:18;96807.44;;;20.74;58.37
50057;BME280;36875;49.468;11.200;2023-08-01T02:16:44;96808.59;;;20.73;58.52
50057;BME280;36875;49.468;11.200;2023-08-01T02:19:09;96793.31;;;20.72;58.83
50057;BME280;36875;49.468;11.200;2023-08-01T02:21:34;96792.53;;;20.72;58.33
50057;BME280;36875;49.468;11.200;2023-08-01T02:24:00;96784.00;;;20.73;58.50
50057;BME280;36875;49.468;11.200;2023-08-01T02:26:25;96773.41;;;20.72;58.56
50057;BME280;36875;49.468;11.200;2023-08-01T02:28:52;96767.94;;;20.72;58.42
50057;BME280;36875;49.468;11.200;2023-08-01T02:31:19;96750.72;;;20.71;58.84
50057;BME280;36875;49.468;11.200;2023-08-01T02:33:44;96751.53;;;20.72;58.58
50057;BME280;36875;49.468;11.200;2023-08-01T02:36:10;96743.31;;;20.72;58.78
50057;BME280;36875;49.468;11.200;2023-08-01T02:38:35;96738.66;;;20.72;58.69
50057;BME280;36875;49.468;11.200;2023-08-01T02:41:01;96744.44;;;20.71;58.95
50057;BME280;36875;49.468;11.200;2023-08-01T02:43:26;96747.63;;;20.73;58.51
50057;BME280;36875;49.468;11.200;2023-08-01T02:45:53;96739.78;;;20.71;58.31
50057;BME280;36875;49.468;11.200;2023-08-01T02:48:18;96727.59;;;20.69;58.86
50057;BME280;36875;49.468;11.200;2023-08-01T02:50:45;96729.66;;;20.72;58.52
50057;BME280;36875;49.468;11.200;2023-08-01T02:53:10;96722.59;;;20.71;58.68
50057;BME280;36875;49.468;11.200;2023-08-01T02:55:36;96724.19;;;20.72;58.74
50057;BME280;36875;49.468;11.200;2023-08-01T02:58:01;96724.53;;;20.70;58.71
50057;BME280;36875;49.468;11.200;2023-08-01T03:00:27;96725.31;;;20.71;58.52
50057;BME280;36875;49.468;11.200;2023-08-01T03:02:53;96726.91;;;20.72;58.59
50057;BME280;36875;49.468;11.200;2023-08-01T03:05:19;96731.13;;;20.69;58.73
50057;BME280;36875;49.468;11.200;2023-08-01T03:07:44;96738.97;;;20.71;58.82
50057;BME280;36875;49.468;11.200;2023-08-01T03:10:10;96732.38;;;20.72;59.00
50057;BME280;36875;49.468;11.200;2023-08-01T03:12:36;96738.97;;;20.71;58.88
50057;BME280;36875;49.468;11.200;2023-08-01T03:15:02;96747.19;;;20.71;58.91
50057;BME280;36875;49.468;11.200;2023-08-01T03:17:28;96742.06;;;20.69;58.86
50057;BME280;36875;49.468;11.200;2023-08-01T03:19:55;96742.06;;;20.69;59.03
50057;BME280;36875;49.468;11.200;2023-08-01T03:22:20;96749.13;;;20.70;59.02
50057;BME280;36875;49.468;11.200;2023-08-01T03:24:46;96755.38;;;20.71;58.91
50057;BME280;36875;49.468;11.200;2023-08-01T03:27:12;96753.81;;;20.70;58.82
50057;BME280;36875;49.468;11.200;2023-08-01T03:29:37;96740.13;;;20.70;58.65
50057;BME280;36875;49.468;11.200;2023-08-01T03:32:04;96742.88;;;20.70;59.01
50057;BME280;36875;49.468;11.200;2023-08-01T03:34:30;96731.13;;;20.69;58.63
50057;BME280;36875;49.468;11.200;2023-08-01T03:36:57;96722.91;;;20.69;58.94
50057;BME280;36875;49.468;11.200;2023-08-01T03:39:23;96728.75;;;20.68;58.86
50057;BME280;36875;49.468;11.200;2023-08-01T03:41:48;96724.88;;;20.69;59.07
50057;BME280;36875;49.468;11.200;2023-08-01T03:44:14;96716.66;;;20.69;58.80
50057;BME280;36875;49.468;11.200;2023-08-01T03:46:41;96717.44;;;20.69;59.25
50057;BME280;36875;49.468;11.200;2023-08-01T03:49:06;96713.16;;;20.68;58.86
50057;BME280;36875;49.468;11.200;2023-08-01T03:51:32;96708.47;;;20.69;59.11
50057;BME280;36875;49.468;11.200;2023-08-01T03:53:59;96706.88;;;20.68;58.98
50057;BME280;36875;49.468;11.200;2023-08-01T03:56:24;96704.94;;;20.68;59.07
50057;BME280;36875;49.468;11.200;2023-08-01T03:58:49;96702.22;;;20.68;59.10
50057;BME280;36875;49.468;11.200;2023-08-01T04:01:15;96690.50;;;20.68;59.02
50057;BME280;36875;49.468;11.200;2023-08-01T04:03:40;96678.72;;;20.67;58.78
50057;BME280;36875;49.468;11.200;2023-08-01T04:06:07;96685.03;;;20.68;59.10
50057;BME280;36875;49.468;11.200;2023-08-01T04:08:33;96676.81;;;20.68;59.07
50057;BME280;36875;49.468;11.200;2023-08-01T04:11:00;96669.75;;;20.67;59.16
50057;BME280;36875;49.468;11.200;2023-08-01T04:13:25;96674.09;;;20.68;59.15
50057;BME280;36875;49.468;11.200;2023-08-01T04:15:51;96677.94;;;20.67;59.19
50057;BME280;36875;49.468;11.200;2023-08-01T04:18:16;96668.63;;;20.68;58.93
50057;BME280;36875;49.468;11.200;2023-08-01T04:20:42;96677.94;;;20.67;59.03
50057;BME280;36875;49.468;11.200;2023-08-01T04:23:07;96669.75;;;20.67;59.30
50057;BME280;36875;49.468;11.200;2023-08-01T04:25:33;96671.69;;;20.66;59.29
50057;BME280;36875;49.468;11.200;2023-08-01T04:27:59;96662.69;;;20.66;59.12
50057;BME280;36875;49.468;11.200;2023-08-01T04:30:25;96668.16;;;20.66;59.36
50057;BME280;36875;49.468;11.200;2023-08-01T04:32:50;96658.69;;;20.63;59.30
50057;BME280;36875;49.468;11.200;2023-08-01T04:35:16;96648.22;;;20.65;59.29
50057;BME280;36875;49.468;11.200;2023-08-01T04:37:41;96647.44;;;20.65;59.11
50057;BME280;36875;49.468;11.200;2023-08-01T04:40:08;96648.22;;;20.65;59.25
50057;BME280;36875;49.468;11.200;2023-08-01T04:42:33;96644.69;;;20.65;59.13
50057;BME280;36875;49.468;11.200;2023-08-01T04:45:00;96639.22;;;20.65;59.31
50057;BME280;36875;49.468;11.200;2023-08-01T04:47:26;96633.75;;;20.65;59.44
50057;BME280;36875;49.468;11.200;2023-08-01T04:49:51;96624.78;;;20.64;59.26
50057;BME280;36875;49.468;11.200;2023-08-01T04:52:17;96629.44;;;20.64;59.48
50057;BME280;36875;49.468;11.200;2023-08-01T04:54:42;96621.22;;;20.64;59.52
50057;BME280;36875;49.468;11.200;2023-08-01T04:57:08;96621.22;;;20.64;59.24
50057;BME280;36875;49.468;11.200;2023-08-01T04:59:33;96617.72;;;20.63;59.39
50057;BME280;36875;49.468;11.200;2023-08-01T05:02:00;96616.91;;;20.63;59.61
50057;BME280;36875;49.468;11.200;2023-08-01T05:04:25;96604.81;;;20.64;59.49
50057;BME280;36875;49.468;11.200;2023-08-01T05:06:51;96610.63;;;20.62;59.64
50057;BME280;36875;49.468;11.200;2023-08-01T05:09:19;96618.50;;;20.64;59.62
50057;BME280;36875;49.468;11.200;2023-08-01T05:11:45;96612.56;;;20.62;59.62
50057;BME280;36875;49.468;11.200;2023-08-01T05:14:10;96614.53;;;20.61;59.56
50057;BME280;36875;49.468;11.200;2023-08-01T05:16:36;96622.38;;;20.63;59.82
50057;BME280;36875;49.468;11.200;2023-08-01T05:19:02;96631.72;;;20.62;59.39
50057;BME280;36875;49.468;11.200;2023-08-01T05:21:28;96634.09;;;20.63;59.61
50057;BME280;36875;49.468;11.200;2023-08-01T05:23:53;96635.59;;;20.60;59.65
50057;BME280;36875;49.468;11.200;2023-08-01T05:26:19;96637.19;;;20.62;59.80
50057;BME280;36875;49.468;11.200;2023-08-01T05:28:44;96637.97;;;20.62;59.59
50057;BME280;36875;49.468;11.200;2023-08-01T05:31:10;96636.41;;;20.61;59.90
50057;BME280;36875;49.468;11.200;2023-08-01T05:33:35;96639.91;;;20.62;59.94
50057;BME280;36875;49.468;11.200;2023-08-01T05:36:02;96628.19;;;20.61;59.90
50057;BME280;36875;49.468;11.200;2023-08-01T05:38:28;96633.31;;;20.63;59.82
50057;BME280;36875;49.468;11.200;2023-08-01T05:40:53;96627.84;;;20.63;59.65
50057;BME280;36875;49.468;11.200;2023-08-01T05:43:19;96633.31;;;20.63;59.76
50057;BME280;36875;49.468;11.200;2023-08-01T05:45:44;96633.31;;;20.63;59.99
50057;BME280;36875;49.468;11.200;2023-08-01T05:48:10;96644.25;;;20.63;59.76
50057;BME280;36875;49.468;11.200;2023-08-01T05:50:35;96642.31;;;20.63;59.87
50057;BME280;36875;49.468;11.200;2023-08-01T05:53:02;96646.97;;;20.63;59.88
50057;BME280;36875;49.468;11.200;2023-08-01T05:55:28;96639.91;;;20.62;60.07
50057;BME280;36875;49.468;11.200;2023-08-01T05:57:53;96641.53;;;20.63;59.75
50057;BME280;36875;49.468;11.200;2023-08-01T06:00:19;96645.03;;;20.63;59.98
50057;BME280;36875;49.468;11.200;2023-08-01T06:02:47;96643.09;;;20.64;59.71
50057;BME280;36875;49.468;11.200;2023-08-01T06:05:13;96645.03;;;20.63;59.98
50057;BME280;36875;49.468;11.200;2023-08-01T06:07:38;96641.97;;;20.65;60.19
50057;BME280;36875;49.468;11.200;2023-08-01T06:10:06;96643.53;;;20.66;60.01
50057;BME280;36875;49.468;11.200;2023-08-01T06:12:32;96649.00;;;20.66;60.01
50057;BME280;36875;49.468;11.200;2023-08-01T06:14:57;96653.69;;;20.65;59.74
50057;BME280;36875;49.468;11.200;2023-08-01T06:17:23;96640.34;;;20.64;59.92
50057;BME280;36875;49.468;11.200;2023-08-01T06:19:48;96630.59;;;20.63;59.87
50057;BME280;36875;49.468;11.200;2023-08-01T06:22:15;96637.63;;;20.64;59.75
50057;BME280;36875;49.468;11.200;2023-08-01T06:24:40;96645.03;;;20.63;59.79
50057;BME280;36875;49.468;11.200;2023-08-01T06:27:07;96637.19;;;20.62;60.67
50057;BME280;36875;49.468;11.200;2023-08-01T06:29:33;96644.25;;;20.63;59.99
50057;BME280;36875;49.468;11.200;2023-08-01T06:31:58;96646.97;;;20.63;59.94
50057;BME280;36875;49.468;11.200;2023-08-01T06:34:24;96650.38;;;20.59;60.45
50057;BME280;36875;49.468;11.200;2023-08-01T06:36:50;96658.25;;;20.61;59.95
50057;BME280;36875;49.468;11.200;2023-08-01T06:39:15;96661.31;;;20.59;60.78
50057;BME280;36875;49.468;11.200;2023-08-01T06:41:41;96670.28;;;20.60;59.70
50057;BME280;36875;49.468;11.200;2023-08-01T06:44:08;96671.44;;;20.59;60.11
50057;BME280;36875;49.468;11.200;2023-08-01T06:46:33;96673.88;;;20.60;59.76
50057;BME280;36875;49.468;11.200;2023-08-01T06:48:59;96674.66;;;20.61;60.34
50057;BME280;36875;49.468;11.200;2023-08-01T06:51:24;96680.91;;;20.62;60.44
50057;BME280;36875;49.468;11.200;2023-08-01T06:53:50;96676.22;;;20.62;60.74
50057;BME280;36875;49.468;11.200;2023-08-01T06:56:15;96671.94;;;20.61;61.41
50057;BME280;36875;49.468;11.200;2023-08-01T06:58:43;96678.19;;;20.62;61.46
50057;BME280;36875;49.468;11.200;2023-08-01T07:01:10;96679.78;;;20.63;60.90
50057;BME280;36875;49.468;11.200;2023-08-01T07:03:36;96679.78;;;20.63;60.94
50057;BME280;36875;49.468;11.200;2023-08-01T07:06:01;96686.81;;;20.64;61.45
50057;BME280;36875;49.468;11.200;2023-08-01T07:08:28;96679.44;;;20.64;61.32
50057;BME280;36875;49.468;11.200;2023-08-01T07:10:53;96682.97;;;20.65;61.23
50057;BME280;36875;49.468;11.200;2023-08-01T07:13:19;96682.19;;;20.64;60.99
50057;BME280;36875;49.468;11.200;2023-08-01T07:15:45;96667.69;;;20.64;60.96
50057;BME280;36875;49.468;11.200;2023-08-01T07:18:12;96666.13;;;20.63;61.07
50057;BME280;36875;49.468;11.200;2023-08-01T07:20:37;96669.63;;;20.63;60.69
50057;BME280;36875;49.468;11.200;2023-08-01T07:23:02;96659.84;;;20.62;61.08
50057;BME280;36875;49.468;11.200;2023-08-01T07:25:28;96647.78;;;20.63;61.32
50057;BME280;36875;49.468;11.200;2023-08-01T07:27:53;96649.72;;;20.63;61.51
50057;BME280;36875;49.468;11.200;2023-08-01T07:30:19;96646.97;;;20.63;61.58
50057;BME280;36875;49.468;11.200;2023-08-01T07:32:44;96652.13;;;20.64;61.45
50057;BME280;36875;49.468;11.200;2023-08-01T07:35:11;96655.19;;;20.63;61.14
50057;BME280;36875;49.468;11.200;2023-08-01T07:37:37;96650.16;;;20.65;61.23
50057;BME280;36875;49.468;11.200;2023-08-01T07:40:04;96651.28;;;20.64;61.14
50057;BME280;36875;49.468;11.200;2023-08-01T07:42:29;96640.34;;;20.64;61.23
50057;BME280;36875;49.468;11.200;2023-08-01T07:44:55;96652.44;;;20.63;61.20
50057;BME280;36875;49.468;11.200;2023-08-01T07:47:21;96650.50;;;20.63;61.30
50057;BME280;36875;49.468;11.200;2023-08-01T07:49:46;96650.50;;;20.63;60.88
50057;BME280;36875;49.468;11.200;2023-08-01T07:52:13;96648.91;;;20.62;60.89
50057;BME280;36875;49.468;11.200;2023-08-01T07:54:39;96649.72;;;20.63;60.75
50057;BME280;36875;49.468;11.200;2023-08-01T07:57:05;96650.50;;;20.63;60.89
50057;BME280;36875;49.468;11.200;2023-08-01T07:59:31;96652.44;;;20.63;61.02
50057;BME280;36875;49.468;11.200;2023-08-01T08:01:56;96658.69;;;20.63;61.01
50057;BME280;36875;49.468;11.200;2023-08-01T08:04:22;96648.56;;;20.64;61.04
50057;BME280;36875;49.468;11.200;2023-08-01T08:06:47;96641.97;;;20.65;60.69
50057;BME280;36875;49.468;11.200;2023-08-01T08:09:14;96641.97;;;20.65;60.81
50057;BME280;36875;49.468;11.200;2023-08-01T08:11:40;96631.03;;;20.65;60.87
50057;BME280;36875;49.468;11.200;2023-08-01T08:14:05;96632.97;;;20.64;60.60
50057;BME280;36875;49.468;11.200;2023-08-01T08:16:31;96630.59;;;20.63;60.72
50057;BME280;36875;49.468;11.200;2023-08-01T08:18:56;96628.28;;;20.65;60.87
50057;BME280;36875;49.468;11.200;2023-08-01T08:21:22;96627.50;;;20.64;61.08
50057;BME280;36875;49.468;11.200;2023-08-01T08:23:47;96634.91;;;20.64;61.11
50057;BME280;36875;49.468;11.200;2023-08-01T08:26:14;96632.16;;;20.64;61.01
50057;BME280;36875;49.468;11.200;2023-08-01T08:28:40;96637.63;;;20.64;60.85
50057;BME280;36875;49.468;11.200;2023-08-01T08:31:07;96640.34;;;20.64;60.76
50057;BME280;36875;49.468;11.200;2023-08-01T08:33:32;96650.50;;;20.63;61.11
50057;BME280;36875;49.468;11.200;2023-08-01T08:35:58;96663.84;;;20.65;60.93
50057;BME280;36875;49.468;11.200;2023-08-01T08:38:23;96658.69;;;20.63;60.98
50057;BME280;36875;49.468;11.200;2023-08-01T08:40:58;96664.97;;;20.64;60.55
50057;BME280;36875;49.468;11.200;2023-08-01T08:43:29;96670.44;;;20.64;60.83
50057;BME280;36875;49.468;11.200;2023-08-01T08:45:57;96673.16;;;20.64;60.57
50057;BME280;36875;49.468;11.200;2023-08-01T08:48:25;96682.53;;;20.63;60.71
50057;BME280;36875;49.468;11.200;2023-08-01T08:50:52;96675.91;;;20.64;60.55
50057;BME280;36875;49.468;11.200;2023-08-01T08:53:18;96669.63;;;20.63;60.70
50057;BME280;36875;49.468;11.200;2023-08-01T08:55:44;96653.59;;;20.62;60.52
50057;BME280;36875;49.468;11.200;2023-08-01T08:58:10;96650.50;;;20.63;60.61
50057;BME280;36875;49.468;11.200;2023-08-01T09:00:37;96608.28;;;20.60;60.26
50057;BME280;36875;49.468;11.200;2023-08-01T09:03:02;96566.44;;;20.60;60.55
50057;BME280;36875;49.468;11.200;2023-08-01T09:05:33;96525.44;;;20.60;60.54
50057;BME280;36875;49.468;11.200;2023-08-01T09:08:04;96567.28;;;20.60;60.28
50057;BME280;36875;49.468;11.200;2023-08-01T09:10:32;96546.97;;;20.62;60.30
50057;BME280;36875;49.468;11.200;2023-08-01T09:12:58;96554.41;;;20.61;60.35
50057;BME280;36875;49.468;11.200;2023-08-01T09:15:25;96589.13;;;20.60;60.32
50057;BME280;36875;49.468;11.200;2023-08-01T09:17:55;96597.78;;;20.63;60.19
50057;BME280;36875;49.468;11.200;2023-08-01T09:20:26;96611.44;;;20.63;60.01
50057;BME280;36875;49.468;11.200;2023-08-01T09:22:52;96607.56;;;20.64;60.27
50057;BME280;36875;49.468;11.200;2023-08-01T09:25:17;96600.53;;;20.63;60.18
50057;BME280;36875;49.468;11.200;2023-08-01T09:27:43;96604.03;;;20.63;60.11
50057;BME280;36875;49.468;11.200;2023-08-01T09:30:10;96609.50;;;20.63;59.92
50057;BME280;36875;49.468;11.200;2023-08-01T09:32:38;96613.03;;;20.64;60.11
50057;BME280;36875;49.468;11.200;2023-08-01T09:35:06;96605.97;;;20.63;60.17
50057;BME280;36875;49.468;11.200;2023-08-01T09:37:41;96615.75;;;20.64;60.04
50057;BME280;36875;49.468;11.200;2023-08-01T09:40:08;96612.69;;;20.65;60.23
50057;BME280;36875;49.468;11.200;2023-08-01T09:42:37;96622.84;;;20.65;60.07
50057;BME280;36875;49.468;11.200;2023-08-01T09:45:07;96613.84;;;20.64;60.06
50057;BME280;36875;49.468;11.200;2023-08-01T09:47:36;96612.69;;;20.65;60.53
50057;BME280;36875;49.468;11.200;2023-08-01T09:50:02;96620.88;;;20.65;60.41
50057;BME280;36875;49.468;11.200;2023-08-01T09:52:32;96613.47;;;20.66;60.72
50057;BME280;36875;49.468;11.200;2023-08-01T09:54:58;96620.53;;;20.67;60.60
50057;BME280;36875;49.468;11.200;2023-08-01T09:57:28;96609.94;;;20.65;61.00
50057;BME280;36875;49.468;11.200;2023-08-01T09:59:55;96616.19;;;20.66;61.13
50057;BME280;36875;49.468;11.200;2023-08-01T10:02:24;96611.91;;;20.65;61.28
50057;BME280;36875;49.468;11.200;2023-08-01T10:04:52;96605.97;;;20.63;61.18
50057;BME280;36875;49.468;11.200;2023-08-01T10:07:23;96611.09;;;20.64;61.24
50057;BME280;36875;49.468;11.200;2023-08-01T10:09:51;96611.91;;;20.65;61.55
50057;BME280;36875;49.468;11.200;2023-08-01T10:12:17;96600.53;;;20.63;61.47
50057;BME280;36875;49.468;11.200;2023-08-01T10:14:43;96600.97;;;20.65;61.68
50057;BME280;36875;49.468;11.200;2023-08-01T10:17:11;96613.84;;;20.64;61.50
50057;BME280;36875;49.468;11.200;2023-08-01T10:19:37;96600.19;;;20.64;61.63
50057;BME280;36875;49.468;11.200;2023-08-01T10:22:03;96618.16;;;20.65;61.74
50057;BME280;36875;49.468;11.200;2023-08-01T10:24:30;96620.88;;;20.65;61.80
50057;BME280;36875;49.468;11.200;2023-08-01T10:26:57;96609.16;;;20.65;61.42
50057;BME280;36875;49.468;11.200;2023-08-01T10:29:36;96615.41;;;20.65;62.10
50057;BME280;36875;49.468;11.200;2023-08-01T10:32:03;96616.19;;;20.66;62.03
50057;BME280;36875;49.468;11.200;2023-08-01T10:34:28;96619.75;;;20.66;62.35
50057;BME280;36875;49.468;11.200;2023-08-01T10:36:54;96610.75;;;20.66;62.06
50057;BME280;36875;49.468;11.200;2023-08-01T10:39:21;96618.59;;;20.67;61.70
50057;BME280;36875;49.468;11.200;2023-08-01T10:41:57;96610.41;;;20.67;62.41
50057;BME280;36875;49.468;11.200;2023-08-01T10:44:24;96608.09;;;20.69;61.98
50057;BME280;36875;49.468;11.200;2023-08-01T10:46:51;96604.59;;;20.69;61.85
50057;BME280;36875;49.468;11.200;2023-08-01T10:49:18;96610.84;;;20.69;61.92
50057;BME280;36875;49.468;11.200;2023-08-01T10:51:44;96617.91;;;20.70;61.95
50057;BME280;36875;49.468;11.200;2023-08-01T10:54:20;96606.19;;;20.70;62.32
50057;BME280;36875;49.468;11.200;2023-08-01T10:56:46;96610.84;;;20.69;61.96
50057;BME280;36875;49.468;11.200;2023-08-01T10:59:14;96606.97;;;20.70;61.74
50057;BME280;36875;49.468;11.200;2023-08-01T11:01:47;96601.97;;;20.72;62.04
50057;BME280;36875;49.468;11.200;2023-08-01T11:04:14;96602.75;;;20.73;61.48
50057;BME280;36875;49.468;11.200;2023-08-01T11:06:45;96602.41;;;20.74;62.03
50057;BME280;36875;49.468;11.200;2023-08-01T11:09:16;96601.63;;;20.74;62.13
50057;BME280;36875;49.468;11.200;2023-08-01T11:11:42;96613.69;;;20.73;62.08
50057;BME280;36875;49.468;11.200;2023-08-01T11:14:08;96615.28;;;20.74;62.35
50057;BME280;36875;49.468;11.200;2023-08-01T11:16:37;96607.06;;;20.74;62.44
50057;BME280;36875;49.468;11.200;2023-08-01T11:19:02;96612.22;;;20.75;62.33
50057;BME280;36875;49.468;11.200;2023-08-01T11:21:28;96605.69;;;20.80;61.76
50057;BME280;36875;49.468;11.200;2023-08-01T11:23:53;96619.09;;;20.85;62.23
50057;BME280;36875;49.468;11.200;2023-08-01T11:26:19;96608.63;;;20.87;62.33
50057;BME280;36875;49.468;11.200;2023-08-01T11:28:45;96610.91;;;20.85;62.36
50057;BME280;36875;49.468;11.200;2023-08-01T11:31:11;96606.13;;;20.82;62.70
50057;BME280;36875;49.468;11.200;2023-08-01T11:33:39;96605.34;;;20.82;62.68
50057;BME280;36875;49.468;11.200;2023-08-01T11:36:05;96614.66;;;20.80;63.11
50057;BME280;36875;49.468;11.200;2023-08-01T11:38:33;96604.56;;;20.81;62.89
50057;BME280;36875;49.468;11.200;2023-08-01T11:41:00;96594.41;;;20.82;62.49
50057;BME280;36875;49.468;11.200;2023-08-01T11:43:26;96601.81;;;20.81;62.70
50057;BME280;36875;49.468;11.200;2023-08-01T11:45:52;96611.59;;;20.82;62.63
50057;BME280;36875;49.468;11.200;2023-08-01T11:48:20;96615.16;;;20.83;62.93
50057;BME280;36875;49.468;11.200;2023-08-01T11:50:48;96606.13;;;20.82;62.57
50057;BME280;36875;49.468;11.200;2023-08-01T11:53:20;96600.66;;;20.82;62.62
50057;BME280;36875;49.468;11.200;2023-08-01T11:55:47;96602.94;;;20.80;62.34
50057;BME280;36875;49.468;11.200;2023-08-01T11:58:13;96597.47;;;20.80;62.34
50057;BME280;36875;49.468;11.200;2023-08-01T12:00:39;96597.47;;;20.80;62.68
50057;BME280;36875;49.468;11.200;2023-08-01T12:03:07;96605.69;;;20.80;62.38
50057;BME280;36875;49.468;11.200;2023-08-01T12:05:33;96605.25;;;20.78;62.48
50057;BME280;36875;49.468;11.200;2023-08-01T12:08:10;96611.03;;;20.76;62.08
50057;BME280;36875;49.468;11.200;2023-08-01T12:10:40;96624.38;;;20.78;62.54
50057;BME280;36875;49.468;11.200;2023-08-01T12:13:05;96625.97;;;20.79;62.55
50057;BME280;36875;49.468;11.200;2023-08-01T12:15:31;96629.59;;;20.83;62.17
50057;BME280;36875;49.468;11.200;2023-08-01T12:17:56;96632.34;;;20.83;61.55
50057;BME280;36875;49.468;11.200;2023-08-01T12:20:22;96637.81;;;20.83;62.25
50057;BME280;36875;49.468;11.200;2023-08-01T12:22:47;96651.91;;;20.85;61.93
50057;BME280;36875;49.468;11.200;2023-08-01T12:25:14;96637.56;;;20.88;61.83
50057;BME280;36875;49.468;11.200;2023-08-01T12:27:40;96627.41;;;20.89;61.48
50057;BME280;36875;49.468;11.200;2023-08-01T12:30:07;96630.00;;;20.97;61.25
50057;BME280;36875;49.468;11.200;2023-08-01T12:32:32;96626.22;;;21.02;60.91
50057;BME280;36875;49.468;11.200;2023-08-01T12:35:00;96624.72;;;21.05;60.81
50057;BME280;36875;49.468;11.200;2023-08-01T12:37:25;96630.22;;;21.05;60.63
50057;BME280;36875;49.468;11.200;2023-08-01T12:39:51;96627.09;;;21.06;60.81
50057;BME280;36875;49.468;11.200;2023-08-01T12:42:19;96629.84;;;21.06;60.82
50057;BME280;36875;49.468;11.200;2023-08-01T12:44:45;96639.63;;;21.07;60.69